Depesze METAR lotnisk w Polsce

METAR – format kodowanego raportu o pogodzie używany w meteorologii lotniczej i prognozie pogody. METAR jest akronimem od ang. Meteorological Aerodrome Report. Typowy METAR zawiera informację o temperaturze, ciśnieniu, temperaturze punktu rosy, sile i kierunku wiatru, opadzie, pokrywie chmur, wysokości podstawy chmur, widzialności, lecz może zawierać też inne informacje (np. stan dróg startowych).

Warszawa-Okęcie (EPWA)

METAR = EPWA 091730Z 33007KT 9999 FEW060CB 25/17 Q1017 NOSIG

STACJA......... EPWA - Warszawa-Okęcie (WAW)
POMIAR......... Sun Aug 9, 19:30 CEST
WIATR.......... północno północno-zachodni (NNW) z prędkością 13 km/h
WIDZIALNOŚĆ.... powyżej 10 kilometrów
CHMURY......... zachmurzenie niewielkie (1/8-2/8)
TEMPERATURA.... 25°C
T.PUNKTU ROSY.. 17°C
WILGOTNOŚĆ..... 61%
CIŚNIENIE...... 1017 hPa
CIŚN.BEZWZGL... 1004 hPa
PROGNOZA....... bez nagłych zmian w ciągu 2h

Sprawdź też: Prognoza pogody Warszawa

Warszawa-Modlin (EPMO)

METAR = EPMO 091730Z 34005KT CAVOK 24/17 Q1018 =

STACJA......... EPMO - Warszawa-Modlin (WMI)
POMIAR......... Sun Aug 9, 19:30 CEST
WIATR.......... północno północno-zachodni (NNW) z prędkością 9 km/h
WIDZIALNOŚĆ.... powyżej 10 kilometrów
CHMURY......... bezchmurne niebo
TEMPERATURA.... 24°C
T.PUNKTU ROSY.. 17°C
WILGOTNOŚĆ..... 65%
CIŚNIENIE...... 1018 hPa
CIŚN.BEZWZGL... 1006 hPa

Sprawdź też: Prognoza pogody Nowy Dwór Mazowiecki

Kraków-Balice (EPKK)

METAR = EPKK 091730Z 26003KT 9999 FEW060 27/17 Q1017

STACJA......... EPKK - Kraków-Balice (KRK)
POMIAR......... Sun Aug 9, 19:30 CEST
WIATR.......... zachodni (W) z prędkością 6 km/h
WIDZIALNOŚĆ.... powyżej 10 kilometrów
CHMURY......... zachmurzenie niewielkie (1/8-2/8)
TEMPERATURA.... 27°C
T.PUNKTU ROSY.. 17°C
WILGOTNOŚĆ..... 54%
INDEX GORĄCA... 28°C
CIŚNIENIE...... 1017 hPa
CIŚN.BEZWZGL... 990 hPa

Sprawdź też: Prognoza pogody Kraków

Łódź-Lublinek (EPLL)

METAR = EPLL 091730Z 02004KT 9999 FEW070CB 29/15 Q1017

STACJA......... EPLL - Łódź-Lublinek (LCJ)
POMIAR......... Sun Aug 9, 19:30 CEST
WIATR.......... północno północno-wschodni (NNE) z prędkością 7 km/h
WIDZIALNOŚĆ.... powyżej 10 kilometrów
CHMURY......... zachmurzenie niewielkie (1/8-2/8)
TEMPERATURA.... 29°C
T.PUNKTU ROSY.. 15°C
WILGOTNOŚĆ..... 43%
INDEX GORĄCA... 29°C
CIŚNIENIE...... 1017 hPa
CIŚN.BEZWZGL... 996 hPa

Sprawdź też: Prognoza pogody Łódź

Wrocław-Strachowice (EPWR)

METAR = EPWR 091730Z 04004KT CAVOK 29/15 Q1016

STACJA......... EPWR - Wrocław-Strachowice (WRO)
POMIAR......... Sun Aug 9, 19:30 CEST
WIATR.......... północno-wschodni (NE) z prędkością 7 km/h
WIDZIALNOŚĆ.... powyżej 10 kilometrów
CHMURY......... bezchmurne niebo
TEMPERATURA.... 29°C
T.PUNKTU ROSY.. 15°C
WILGOTNOŚĆ..... 43%
INDEX GORĄCA... 29°C
CIŚNIENIE...... 1016 hPa
CIŚN.BEZWZGL... 1002 hPa

Sprawdź też: Prognoza pogody Wrocław

Katowice-Pyrzowice (EPKT)

METAR = EPKT 091730Z 21003KT 200V260 CAVOK 26/18 Q1017

STACJA......... EPKT - Katowice-Pyrzowice (KTW)
POMIAR......... Sun Aug 9, 19:30 CEST
WIATR.......... południowo południowo-zachodni  (SSW) z prędkością 6 km/h
WIDZIALNOŚĆ.... powyżej 10 kilometrów
CHMURY......... bezchmurne niebo
TEMPERATURA.... 26°C
T.PUNKTU ROSY.. 18°C
WILGOTNOŚĆ..... 61%
CIŚNIENIE...... 1017 hPa
CIŚN.BEZWZGL... 983 hPa

Sprawdź też: Prognoza pogody Katowice

Gdańsk (EPGD)

METAR = EPGD 091730Z VRB02KT CAVOK 24/16 Q1019

STACJA......... EPGD - Gdańsk im. Lecha Wałęsy (GDN)
POMIAR......... Sun Aug 9, 19:30 CEST
WIATR.......... zmienny z prędkością 4 km/h
WIDZIALNOŚĆ.... powyżej 10 kilometrów
CHMURY......... bezchmurne niebo
TEMPERATURA.... 24°C
T.PUNKTU ROSY.. 16°C
WILGOTNOŚĆ..... 61%
CIŚNIENIE...... 1019 hPa
CIŚN.BEZWZGL... 1002 hPa

Sprawdź też: Prognoza pogody Gdańsk

Poznań-Ławica (EPPO)

METAR = EPPO 091730Z 25003KT 9999 FEW046TCU 23/20 Q1018

STACJA......... EPPO - Poznań-Ławica (POZ)
POMIAR......... Sun Aug 9, 19:30 CEST
WIATR.......... zachodni południowo-zachodni (WSW) z prędkością 6 km/h
WIDZIALNOŚĆ.... powyżej 10 kilometrów
CHMURY......... zachmurzenie niewielkie (1/8-2/8)
TEMPERATURA.... 23°C
T.PUNKTU ROSY.. 20°C
WILGOTNOŚĆ..... 83%
CIŚNIENIE...... 1018 hPa
CIŚN.BEZWZGL... 1007 hPa

Sprawdź też: Prognoza pogody Poznań

Rzeszów-Jasionka (EPRZ)

METAR = EPRZ 091730Z 11007KT 9999 SCT050CB 20/19 Q1018 RETS

STACJA......... EPRZ - Rzeszów-Jasionka (RZE)
POMIAR......... Sun Aug 9, 19:30 CEST
WIATR.......... wschodni południowo-wschodni (ESE) z prędkością 13 km/h
WIDZIALNOŚĆ.... powyżej 10 kilometrów
CHMURY......... zachmurzenie małe (3/8-4/8)
TEMPERATURA.... 20°C
T.PUNKTU ROSY.. 19°C
WILGOTNOŚĆ..... 94%
CIŚNIENIE...... 1018 hPa
CIŚN.BEZWZGL... 993 hPa
WCZEŚNIEJ...... obserwowane były zjawiska: burza

Sprawdź też: Prognoza pogody Rzeszów

Szczecin-Goleniów (EPSC)

METAR = EPSC 091730Z VRB02KT CAVOK 27/19 Q1018

STACJA......... EPSC - Szczecin-Goleniów (SZZ)
POMIAR......... Sun Aug 9, 19:30 CEST
WIATR.......... zmienny z prędkością 4 km/h
WIDZIALNOŚĆ.... powyżej 10 kilometrów
CHMURY......... bezchmurne niebo
TEMPERATURA.... 27°C
T.PUNKTU ROSY.. 19°C
WILGOTNOŚĆ..... 62%
INDEX GORĄCA... 28°C
CIŚNIENIE...... 1018 hPa
CIŚN.BEZWZGL... 1013 hPa

Sprawdź też: Prognoza pogody Szczecin

Lublin-Świdnik (EPLB)

METAR = EPLB 091730Z 29006KT CAVOK 20/20 Q1018 =

STACJA......... EPLB - Lublin-Świdnik (LUZ)
POMIAR......... Sun Aug 9, 19:30 CEST
WIATR.......... zachodni północno-zachodni (WNW) z prędkością 11 km/h
WIDZIALNOŚĆ.... powyżej 10 kilometrów
CHMURY......... bezchmurne niebo
TEMPERATURA.... 20°C
T.PUNKTU ROSY.. 20°C
WILGOTNOŚĆ..... 100%
CIŚNIENIE...... 1018 hPa
CIŚN.BEZWZGL... 994 hPa

Sprawdź też: Prognoza pogody Lublin

Bydgoszcz-Szwederowo (EPBY)

METAR = EPBY 091730Z 33004KT CAVOK 24/17 Q1018=

STACJA......... EPBY - Bydgoszcz-Szwederowo (BZG)
POMIAR......... Sun Aug 9, 19:30 CEST
WIATR.......... północno północno-zachodni (NNW) z prędkością 7 km/h
WIDZIALNOŚĆ.... powyżej 10 kilometrów
CHMURY......... bezchmurne niebo
TEMPERATURA.... 24°C
T.PUNKTU ROSY.. 17°C
WILGOTNOŚĆ..... 65%
CIŚNIENIE...... 1018 hPa
CIŚN.BEZWZGL... 1010 hPa

Sprawdź też: Prognoza pogody Bydgoszcz

Zielona Góra-Babimost (EPZG)

METAR = EPZG 091730Z 36004KT 320V040 CAVOK 26/18 Q1017 =

STACJA......... EPZG - Zielona Góra-Babimost (IEG)
POMIAR......... Sun Aug 9, 19:30 CEST
WIATR.......... północny (N) z prędkością 7 km/h
WIDZIALNOŚĆ.... powyżej 10 kilometrów
CHMURY......... bezchmurne niebo
TEMPERATURA.... 26°C
T.PUNKTU ROSY.. 18°C
WILGOTNOŚĆ..... 61%
CIŚNIENIE...... 1017 hPa
CIŚN.BEZWZGL... 1010 hPa

Sprawdź też: Prognoza pogody Zielona Góra

Szymany Olsztyn-Mazury (EPSY)

METAR = EPSY 091730Z 00000KT 9999 FEW060TCU 25/19 Q1018=

STACJA......... EPSY - Olsztyn-Mazury (SZY)
POMIAR......... Sun Aug 9, 19:30 CEST
WIATR.......... bezwietrznie
WIDZIALNOŚĆ.... powyżej 10 kilometrów
CHMURY......... zachmurzenie niewielkie (1/8-2/8)
TEMPERATURA.... 25°C
T.PUNKTU ROSY.. 19°C
WILGOTNOŚĆ..... 69%
CIŚNIENIE...... 1018 hPa
CIŚN.BEZWZGL... 1002 hPa

Sprawdź też: Prognoza pogody Olsztyn